Time;durP1;ratioP1;P1;durP2;ratioP2;P2;SDS_P1;SDS_P2;PMS_P1;PMS_P2;Temp;Humidity;BMP_temperature;BMP_pressure;BME280_temperature;BME280_humidity;BME280_pressure;Samples;Min_cycle;Max_cycle;Signal;HPM_P1;HPM_P2
2021/03/23 00:01:33;;;;;;;6.10;1.85;;;;;;;0.30;53.60;99952.97;1775194;80;21194;-74
2021/03/23 00:04:03;;;;;;;6.33;2.10;;;;;;;0.25;53.63;99952.77;1770555;78;21095;-74
2021/03/23 00:06:32;;;;;;;5.70;1.77;;;;;;;0.19;53.64;99957.80;1773317;78;21379;-75
2021/03/23 00:09:01;;;;;;;5.92;2.10;;;;;;;0.15;53.79;99957.91;1778791;79;21186;-74
2021/03/23 00:11:34;;;;;;;3.75;1.70;;;;;;;0.09;53.93;99952.16;1767431;80;21261;-74
2021/03/23 00:14:05;;;;;;;4.60;2.02;;;;;;;0.05;53.98;99959.34;1763213;80;21218;-74
2021/03/23 00:16:36;;;;;;;4.45;1.77;;;;;;;0.00;54.05;99967.84;1778321;78;21230;-74
2021/03/23 00:19:06;;;;;;;4.65;2.00;;;;;;;-0.07;54.26;99963.06;1773393;80;22312;-77
2021/03/23 00:21:34;;;;;;;4.70;1.95;;;;;;;-0.13;54.42;99961.24;1775667;78;21895;-76
2021/03/23 00:24:04;;;;;;;8.13;2.20;;;;;;;-0.19;54.61;99964.70;1773422;77;21127;-75
2021/03/23 00:26:32;;;;;;;7.40;2.25;;;;;;;-0.25;54.68;99964.48;1782074;78;21159;-77
2021/03/23 00:29:02;;;;;;;4.62;2.80;;;;;;;-0.30;54.71;99961.63;1783136;78;21179;-78
2021/03/23 00:31:33;;;;;;;4.47;1.82;;;;;;;-0.33;54.87;99967.31;1780115;80;21436;-76
2021/03/23 00:34:04;;;;;;;4.03;1.65;;;;;;;-0.37;54.88;99964.76;1763335;78;21249;-76
2021/03/23 00:36:40;;;;;;;5.72;2.15;;;;;;;-0.42;55.03;99965.08;1776235;78;21198;-76
2021/03/23 00:39:10;;;;;;;5.45;2.20;;;;;;;-0.46;55.16;99973.84;1782620;78;21111;-76
2021/03/23 00:41:41;;;;;;;5.90;2.10;;;;;;;-0.53;55.22;99963.82;1773665;80;21226;-75
2021/03/23 00:44:12;;;;;;;5.80;2.22;;;;;;;-0.58;55.41;99963.63;1777796;80;21693;-75
2021/03/23 00:46:39;;;;;;;4.42;2.02;;;;;;;-0.62;55.53;99972.39;1777080;78;21301;-76
2021/03/23 00:49:08;;;;;;;4.25;1.98;;;;;;;-0.65;55.70;99969.36;1779057;78;22527;-76
2021/03/23 00:51:37;;;;;;;4.15;1.90;;;;;;;-0.71;55.81;99965.70;1778126;78;21694;-73
2021/03/23 00:54:06;;;;;;;5.92;2.12;;;;;;;-0.75;55.91;99964.49;1782491;78;21860;-72
2021/03/23 00:56:34;;;;;;;7.28;2.65;;;;;;;-0.80;56.04;99961.13;1777576;78;21377;-73
2021/03/23 00:59:02;;;;;;;5.67;2.20;;;;;;;-0.82;56.09;99964.98;1788713;78;21204;-74
2021/03/23 01:01:30;;;;;;;9.08;3.00;;;;;;;-0.86;56.24;99965.84;1763495;80;21199;-74
2021/03/23 01:04:01;;;;;;;7.62;3.08;;;;;;;-0.90;56.29;99965.94;1775793;78;21196;-74
2021/03/23 01:06:30;;;;;;;9.55;2.70;;;;;;;-0.92;56.40;99965.83;1780623;78;21218;-73
2021/03/23 01:08:58;;;;;;;7.62;2.65;;;;;;;-0.95;56.47;99963.11;1776489;78;21274;-72
2021/03/23 01:11:26;;;;;;;5.80;2.33;;;;;;;-0.98;56.63;99963.00;1778429;78;21212;-73
2021/03/23 01:13:56;;;;;;;6.53;2.60;;;;;;;-1.01;56.79;99962.08;1771102;78;21170;-74
2021/03/23 01:16:24;;;;;;;6.17;2.87;;;;;;;-1.02;56.95;99959.64;1769216;78;21197;-74
2021/03/23 01:18:53;;;;;;;8.78;3.10;;;;;;;-1.05;57.11;99960.05;1779603;78;21643;-74
2021/03/23 01:21:20;;;;;;;6.97;2.87;;;;;;;-1.08;57.32;99961.75;1779080;78;21478;-74
2021/03/23 01:23:49;;;;;;;6.58;2.75;;;;;;;-1.13;57.51;99961.52;1758553;79;21768;-74
2021/03/23 01:26:17;;;;;;;8.08;3.08;;;;;;;-1.16;57.70;99954.05;1774479;78;21271;-75
2021/03/23 01:28:45;;;;;;;7.22;3.35;;;;;;;-1.20;57.84;99963.60;1751590;80;21220;-73
2021/03/23 01:31:13;;;;;;;7.58;3.05;;;;;;;-1.22;58.01;99966.10;1764947;80;21189;-74
2021/03/23 01:33:41;;;;;;;7.80;3.17;;;;;;;-1.25;58.23;99971.25;1767825;78;21377;-73
2021/03/23 01:36:10;;;;;;;8.23;3.40;;;;;;;-1.27;58.45;99964.58;1778270;78;21175;-73
2021/03/23 01:38:38;;;;;;;7.00;2.90;;;;;;;-1.30;58.72;99967.08;1776909;78;21207;-73
2021/03/23 01:41:07;;;;;;;7.33;3.12;;;;;;;-1.32;59.05;99971.70;1781174;78;21194;-73
2021/03/23 01:43:36;;;;;;;7.47;3.50;;;;;;;-1.36;59.45;99964.42;1741549;80;21158;-74
2021/03/23 01:46:45;;;;;;;7.83;2.83;;;;;;;-1.38;59.71;99963.33;1763385;80;22362;-74
2021/03/23 01:49:20;;;;;;;8.35;3.12;;;;;;;-1.43;59.99;99964.39;1772740;78;21278;-76
2021/03/23 01:51:54;;;;;;;5.00;2.77;;;;;;;-1.45;60.21;99963.77;1764602;79;21218;-77
2021/03/23 01:54:29;;;;;;;7.90;3.17;;;;;;;-1.45;60.33;99966.38;1782045;78;21262;-76
2021/03/23 01:57:00;;;;;;;6.35;3.17;;;;;;;-1.45;60.47;99967.22;1762455;78;21531;-76
2021/03/23 01:59:29;;;;;;;10.88;3.95;;;;;;;-1.47;60.54;99969.21;1740457;80;21220;-76
2021/03/23 02:01:59;;;;;;;6.20;3.30;;;;;;;-1.49;60.60;99969.09;1729407;81;21211;-76
2021/03/23 02:04:27;;;;;;;7.15;3.40;;;;;;;-1.50;60.77;99968.28;1763020;80;21624;-76
2021/03/23 02:06:56;;;;;;;6.85;3.00;;;;;;;-1.50;60.91;99971.41;1734706;79;21183;-77
2021/03/23 02:09:28;;;;;;;6.37;3.25;;;;;;;-1.53;61.03;99969.17;1764513;79;21187;-75
2021/03/23 02:11:59;;;;;;;;;;;;;;;-1.58;61.02;99965.83;1755517;81;22506;-76
2021/03/23 02:14:32;;;;;;;8.03;3.35;;;;;;;-1.62;61.07;99971.63;1764391;79;20597;-75
2021/03/23 02:17:32;;;;;;;6.08;3.30;;;;;;;-1.72;61.18;99973.27;1782911;79;21250;-75
2021/03/23 02:20:12;;;;;;;7.47;3.60;;;;;;;-1.77;61.31;99979.59;1801285;78;21152;-74
2021/03/23 02:22:47;;;;;;;6.62;3.20;;;;;;;-1.83;61.54;99977.73;1786444;78;21150;-75
2021/03/23 02:25:21;;;;;;;6.37;3.12;;;;;;;-1.86;61.65;99974.98;1770690;78;21389;-74
2021/03/23 02:27:51;;;;;;;7.28;3.33;;;;;;;-1.92;61.88;99971.31;1773943;78;21205;-74
2021/03/23 02:30:27;;;;;;;7.62;3.40;;;;;;;-1.98;62.06;99972.06;1772757;78;21198;-74
2021/03/23 02:32:55;;;;;;;7.50;3.77;;;;;;;-2.06;62.30;99976.64;1782452;79;21356;-73
2021/03/23 02:35:25;;;;;;;9.70;3.92;;;;;;;-2.06;62.30;99976.64;1782576;80;21169;-74
2021/03/23 02:37:53;;;;;;;8.18;3.83;;;;;;;-2.00;62.31;99978.52;1779204;78;21375;-73
2021/03/23 02:40:21;;;;;;;6.95;3.60;;;;;;;-2.00;62.31;99978.52;1782550;78;21160;-74
2021/03/23 02:42:49;;;;;;;7.90;4.17;;;;;;;-2.03;62.29;99972.34;1773508;78;21182;-75
2021/03/23 02:45:17;;;;;;;8.68;4.30;;;;;;;-2.05;62.36;99969.09;1781661;80;21197;-73
2021/03/23 02:47:45;;;;;;;9.68;4.50;;;;;;;-2.08;62.49;99970.78;1782285;78;21198;-74
2021/03/23 02:50:27;;;;;;;10.35;4.37;;;;;;;-2.09;62.56;99977.82;1768822;78;21570;-77
2021/03/23 02:52:55;;;;;;;9.90;3.67;;;;;;;-2.12;62.73;99972.46;1767336;78;21174;-76
2021/03/23 02:55:23;;;;;;;7.67;3.90;;;;;;;-2.14;62.87;99974.48;1779582;80;21198;-76
2021/03/23 02:57:51;;;;;;;11.33;4.58;;;;;;;-2.19;62.95;99979.45;1780440;78;21237;-76
2021/03/23 03:00:22;;;;;;;8.00;4.50;;;;;;;-2.21;63.07;99980.13;1776690;78;21103;-76
2021/03/23 03:02:52;;;;;;;8.50;4.72;;;;;;;-2.26;63.21;99980.39;1781484;78;21446;-76
2021/03/23 03:05:20;;;;;;;10.85;4.95;;;;;;;-2.25;63.44;99989.34;1788145;80;21488;-75
2021/03/23 03:07:50;;;;;;;8.73;4.25;;;;;;;-2.25;63.44;99989.34;1781763;78;21151;-75
2021/03/23 03:10:18;;;;;;;8.85;4.62;;;;;;;-2.24;63.72;99992.77;1780465;78;21155;-76
2021/03/23 03:12:47;;;;;;;7.67;4.00;;;;;;;-2.29;64.36;99988.11;1783812;78;21207;-75
2021/03/23 03:15:15;;;;;;;8.33;4.45;;;;;;;-2.27;64.78;99991.84;1774663;78;21208;-74
2021/03/23 03:17:44;;;;;;;8.00;4.40;;;;;;;-2.27;64.78;99991.84;1779003;79;21119;-75
2021/03/23 03:20:14;;;;;;;9.73;4.30;;;;;;;-2.23;65.20;99993.91;1777485;78;21144;-75
2021/03/23 03:22:42;;;;;;;10.75;4.45;;;;;;;-2.23;65.20;99993.91;1753941;80;21775;-78
2021/03/23 03:25:12;;;;;;;9.25;4.60;;;;;;;-2.18;65.29;99990.72;1779286;78;21573;-77
2021/03/23 03:27:40;;;;;;;8.53;4.75;;;;;;;-2.13;65.20;99989.17;1744269;80;21374;-78
2021/03/23 03:30:19;;;;;;;12.50;6.00;;;;;;;-2.14;65.10;99986.25;1776508;78;21549;-77
2021/03/23 03:32:48;;;;;;;12.15;7.53;;;;;;;-2.12;65.04;99992.59;1786683;80;21071;-76
2021/03/23 03:35:16;;;;;;;11.20;6.47;;;;;;;-2.10;65.00;99991.11;1770812;78;21574;-77
2021/03/23 03:37:46;;;;;;;11.28;6.40;;;;;;;-2.06;64.93;99988.42;1783983;79;21140;-77
2021/03/23 03:40:22;;;;;;;13.22;7.05;;;;;;;-1.96;64.93;99991.02;1776542;78;22392;-77
2021/03/23 03:42:51;;;;;;;8.78;5.17;;;;;;;-1.96;64.93;99991.02;1795213;78;21052;-77
2021/03/23 03:45:20;;;;;;;9.38;4.92;;;;;;;-1.89;64.82;99984.15;1778889;78;21065;-78
2021/03/23 03:47:55;;;;;;;9.18;4.50;;;;;;;-1.86;64.77;99984.15;1768551;80;21194;-76
2021/03/23 03:50:25;;;;;;;9.10;4.33;;;;;;;-1.82;64.70;99991.92;1770206;78;21139;-77
2021/03/23 03:52:53;;;;;;;14.55;6.05;;;;;;;-1.80;64.62;99992.56;1773192;78;22572;-77
2021/03/23 03:55:23;;;;;;;9.18;5.03;;;;;;;-1.82;64.54;99991.92;1782862;78;21187;-76
2021/03/23 03:57:51;;;;;;;9.75;4.42;;;;;;;-1.80;64.46;99991.25;1773177;78;21568;-77
2021/03/23 04:00:21;;;;;;;12.00;4.78;;;;;;;-1.81;64.45;99990.95;1781169;78;21674;-76
2021/03/23 04:02:50;;;;;;;9.10;4.28;;;;;;;-1.82;64.45;99995.85;1756073;81;21049;-77
2021/03/23 04:05:23;;;;;;;8.90;4.20;;;;;;;-1.82;64.54;99995.85;1765576;80;21251;-76
2021/03/23 04:07:51;;;;;;;9.35;4.42;;;;;;;-1.83;64.57;99995.55;1756992;80;21216;-78
2021/03/23 04:10:21;;;;;;;11.60;4.47;;;;;;;-1.84;64.58;99993.94;1766493;79;21204;-77
2021/03/23 04:12:49;;;;;;;10.55;4.47;;;;;;;-1.85;64.51;99998.84;1758778;79;21199;-79
2021/03/23 04:15:21;;;;;;;8.55;4.08;;;;;;;-1.88;64.47;100000.53;1763986;79;21254;-77
2021/03/23 04:17:50;;;;;;;7.42;3.67;;;;;;;-1.86;64.42;100009.52;1755297;80;21451;-77
2021/03/23 04:20:19;;;;;;;8.70;4.22;;;;;;;-1.86;64.40;100006.40;1736773;79;21227;-77
2021/03/23 04:22:47;;;;;;;8.93;4.25;;;;;;;-1.86;64.42;100006.91;1757272;79;21132;-78
2021/03/23 04:25:16;;;;;;;9.68;4.40;;;;;;;-1.89;64.34;100009.39;1757748;79;21246;-77
2021/03/23 04:27:44;;;;;;;9.48;4.03;;;;;;;-1.87;64.56;100013.95;1751526;80;21155;-76
2021/03/23 04:30:14;;;;;;;8.98;4.50;;;;;;;-1.88;64.54;100008.38;1759333;79;21385;-77
2021/03/23 04:32:42;;;;;;;7.35;4.05;;;;;;;-1.90;64.56;100013.02;1756678;79;21178;-77
2021/03/23 04:35:26;;;;;;;11.83;4.92;;;;;;;-1.90;64.57;100011.70;1751048;79;21508;-76
2021/03/23 04:37:55;;;;;;;8.70;4.75;;;;;;;-1.93;64.71;100011.58;1764481;81;21121;-76
2021/03/23 04:40:23;;;;;;;9.60;4.70;;;;;;;-1.91;64.75;100015.30;1764340;79;21223;-75
2021/03/23 04:42:51;;;;;;;9.90;4.80;;;;;;;-1.87;64.70;100015.26;1758949;79;21412;-76
2021/03/23 04:45:19;;;;;;;9.10;4.05;;;;;;;-1.82;64.43;100010.25;1762724;80;21096;-76
2021/03/23 04:47:47;;;;;;;9.35;4.03;;;;;;;-1.78;64.31;100015.41;1762513;80;21085;-76
2021/03/23 04:50:17;;;;;;;11.57;5.00;;;;;;;-1.74;64.16;100011.44;1763447;79;22634;-76
2021/03/23 04:52:45;;;;;;;10.00;4.47;;;;;;;-1.67;64.01;100012.29;1767515;79;21136;-76
2021/03/23 04:55:16;;;;;;;9.13;4.75;;;;;;;-1.59;63.91;100010.52;1757227;80;22423;-77
2021/03/23 04:57:44;;;;;;;10.32;4.42;;;;;;;-1.52;63.83;100010.06;1756583;81;21167;-78
2021/03/23 05:00:14;;;;;;;10.03;4.70;;;;;;;-1.45;63.75;100012.22;1766152;79;21148;-76
2021/03/23 05:02:42;;;;;;;9.93;4.22;;;;;;;-1.37;63.63;100012.59;1763156;79;21213;-75
2021/03/23 05:05:12;;;;;;;10.15;4.95;;;;;;;-1.33;63.39;100012.51;1759204;80;21247;-77
2021/03/23 05:07:41;;;;;;;9.38;3.92;;;;;;;-1.28;63.27;100013.56;1757708;81;21304;-75
2021/03/23 05:10:12;;;;;;;6.87;2.80;;;;;;;-1.22;63.13;100011.48;1767214;79;21171;-76
2021/03/23 05:12:40;;;;;;;5.92;2.60;;;;;;;-1.15;62.75;100014.61;1756603;79;21058;-75
2021/03/23 05:15:10;;;;;;;6.62;2.77;;;;;;;-1.11;62.43;100021.11;1764963;80;21156;-76
2021/03/23 05:17:38;;;;;;;5.97;3.10;;;;;;;-1.12;62.02;100018.97;1757549;79;21151;-75
2021/03/23 05:20:09;;;;;;;6.30;2.67;;;;;;;-1.08;61.60;100016.79;1759801;79;21400;-76
2021/03/23 05:22:37;;;;;;;6.28;2.80;;;;;;;-1.07;61.41;100015.78;1759501;79;21232;-76
2021/03/23 05:25:09;;;;;;;6.20;2.52;;;;;;;-1.03;61.37;100024.87;1763902;79;21180;-74
2021/03/23 05:27:36;;;;;;;6.78;2.90;;;;;;;-0.99;61.00;100025.61;1762792;80;21133;-76
2021/03/23 05:30:07;;;;;;;7.85;2.75;;;;;;;-0.95;60.90;100028.66;1747468;81;21318;-76
2021/03/23 05:32:34;;;;;;;5.60;2.83;;;;;;;-0.89;60.94;100030.97;1760059;79;21399;-76
2021/03/23 05:35:06;;;;;;;6.58;3.00;;;;;;;-0.84;60.45;100022.84;1756388;79;21262;-76
2021/03/23 05:37:35;;;;;;;10.72;2.98;;;;;;;-0.81;60.21;100031.62;1755655;80;21206;-76
2021/03/23 05:40:07;;;;;;;7.15;3.17;;;;;;;-0.78;59.95;100033.06;1755654;79;21183;-76
2021/03/23 05:42:39;;;;;;;5.72;2.70;;;;;;;-0.74;59.89;100035.08;1768351;79;21150;-76
2021/03/23 05:45:25;;;;;;;6.50;3.08;;;;;;;-0.67;59.83;100035.11;1764139;80;21386;-76
2021/03/23 05:48:26;;;;;;;6.80;2.77;;;;;;;-0.59;59.77;100025.77;1762295;80;21111;-76
2021/03/23 05:51:11;;;;;;;6.12;2.60;;;;;;;-0.50;59.39;100027.70;1759645;79;21159;-76
2021/03/23 05:53:50;;;;;;;9.08;3.60;;;;;;;-0.42;58.99;100024.11;1754101;79;21202;-76
2021/03/23 05:56:18;;;;;;;8.15;3.45;;;;;;;-0.37;58.74;100031.67;1756085;79;21231;-76
2021/03/23 05:58:49;;;;;;;8.00;3.22;;;;;;;-0.33;58.32;100028.97;1759915;81;21500;-76
2021/03/23 06:01:35;;;;;;;9.70;3.22;;;;;;;-0.30;58.02;100021.98;1757014;79;21131;-76
2021/03/23 06:04:23;;;;;;;7.92;3.62;;;;;;;-0.24;57.93;100029.58;1741039;80;21198;-77
2021/03/23 06:07:05;;;;;;;7.17;3.37;;;;;;;-0.16;57.83;100024.67;1757177;80;21132;-78
2021/03/23 06:09:38;;;;;;;5.78;2.72;;;;;;;-0.11;57.44;100020.41;1755593;79;21207;-77
2021/03/23 06:12:24;;;;;;;7.65;3.58;;;;;;;-0.05;57.31;100029.31;1747263;79;22323;-76
2021/03/23 06:15:14;;;;;;;6.17;3.00;;;;;;;-0.02;57.09;100032.86;1767364;79;21198;-78
2021/03/23 06:18:00;;;;;;;7.83;3.67;;;;;;;0.04;56.79;100027.31;1762335;80;21190;-77
2021/03/23 06:20:46;;;;;;;7.60;3.52;;;;;;;0.09;56.54;100032.75;1763295;79;21184;-77
2021/03/23 06:23:37;;;;;;;6.62;2.70;;;;;;;0.13;55.88;100030.86;1761761;79;21195;-76
2021/03/23 06:26:48;;;;;;;6.65;2.92;;;;;;;0.21;55.81;100034.58;1728406;81;22357;-77
2021/03/23 06:29:40;;;;;;;8.68;3.52;;;;;;;0.32;55.88;100049.44;1759418;79;21247;-76
2021/03/23 06:32:44;;;;;;;6.20;2.70;;;;;;;0.42;54.77;100041.95;1755666;79;21273;-76
2021/03/23 06:35:20;;;;;;;12.47;3.70;;;;;;;0.48;54.34;100045.08;1759063;79;21428;-76
2021/03/23 06:37:50;;;;;;;9.85;3.75;;;;;;;0.54;53.95;100040.33;1764897;81;21155;-76
2021/03/23 06:40:25;;;;;;;8.28;3.62;;;;;;;0.60;54.16;100042.15;1750630;80;21260;-76
2021/03/23 06:42:56;;;;;;;7.15;3.40;;;;;;;0.68;54.04;100048.49;1760635;79;21255;-75
2021/03/23 06:45:37;;;;;;;7.60;2.80;;;;;;;0.79;53.31;100046.25;1779746;79;21219;-76
2021/03/23 06:48:25;;;;;;;7.53;2.62;;;;;;;0.86;53.17;100043.92;1769423;78;21152;-76
2021/03/23 06:51:16;;;;;;;4.83;2.02;;;;;;;0.97;52.50;100042.48;1785130;79;21122;-77
2021/03/23 06:53:44;;;;;;;7.28;2.47;;;;;;;1.07;52.29;100045.48;1772863;78;21374;-76
2021/03/23 06:56:27;;;;;;;8.63;2.50;;;;;;;1.14;51.28;100050.72;1777921;78;21207;-75
2021/03/23 06:59:06;;;;;;;11.22;3.08;;;;;;;1.19;50.39;100050.12;1778685;78;21216;-75
2021/03/23 07:01:50;;;;;;;10.53;2.85;;;;;;;1.19;49.83;100057.50;1770270;78;21992;-76
2021/03/23 07:04:34;;;;;;;6.55;2.37;;;;;;;1.21;48.42;100044.13;1780927;78;21247;-78
2021/03/23 07:07:19;;;;;;;9.90;2.83;;;;;;;1.22;47.66;100047.88;1753939;80;21204;-75
2021/03/23 07:09:56;;;;;;;9.03;3.65;;;;;;;1.25;46.98;100048.78;1772017;78;21253;-75
2021/03/23 07:12:44;;;;;;;7.83;2.80;;;;;;;1.26;47.60;100054.33;1782616;78;21139;-75
2021/03/23 07:15:28;;;;;;;11.78;2.67;;;;;;;1.33;47.80;100038.52;1779813;78;21159;-76
2021/03/23 07:18:12;;;;;;;9.88;2.85;;;;;;;1.37;46.78;100051.03;1776574;78;21162;-75
2021/03/23 07:20:44;;;;;;;10.80;3.17;;;;;;;1.42;46.67;100046.48;1779993;78;21360;-76
2021/03/23 07:23:39;;;;;;;10.23;3.10;;;;;;;1.46;45.66;100041.60;1781019;78;21234;-75
2021/03/23 07:26:36;;;;;;;9.53;2.27;;;;;;;1.50;46.65;100029.12;1794972;79;22209;-76
2021/03/23 07:29:24;;;;;;;5.75;1.90;;;;;;;1.45;46.39;100043.91;1776471;80;21188;-75
2021/03/23 07:32:12;;;;;;;8.50;2.25;;;;;;;1.45;45.85;100039.97;1771924;80;21373;-75
2021/03/23 07:35:06;;;;;;;6.75;2.15;;;;;;;1.51;45.72;100039.94;1773811;80;21255;-77
2021/03/23 07:37:50;;;;;;;7.27;2.27;;;;;;;1.60;45.03;100051.84;1834685;77;22730;-75
2021/03/23 07:40:40;;;;;;;9.33;2.20;;;;;;;1.53;45.29;100045.81;1810671;75;21072;-75
2021/03/23 07:43:32;;;;;;;7.58;2.55;;;;;;;1.57;45.72;100039.09;1813706;78;21698;-75
2021/03/23 07:46:36;;;;;;;8.95;2.70;;;;;;;1.68;46.04;100039.45;1809380;77;21052;-75
2021/03/23 07:49:38;;;;;;;7.90;2.55;;;;;;;1.81;45.14;100038.05;1819841;78;21147;-75
2021/03/23 07:52:21;;;;;;;6.95;2.05;;;;;;;1.90;44.66;100040.73;1817110;76;21171;-75
2021/03/23 07:54:50;;;;;;;6.20;1.90;;;;;;;1.99;44.50;100032.88;1817265;77;21179;-76
2021/03/23 07:57:33;;;;;;;6.28;2.27;;;;;;;2.09;44.47;100026.63;1820157;76;21202;-75
2021/03/23 08:00:26;;;;;;;4.17;2.02;;;;;;;2.21;42.94;100022.00;1818393;76;20980;-74
2021/03/23 08:03:38;;;;;;;6.75;2.10;;;;;;;2.24;42.44;100032.91;1816641;76;21143;-74
2021/03/23 08:06:16;;;;;;;;;;;;;;;2.25;41.21;100025.30;1820846;76;21584;-75
2021/03/23 08:09:18;;;;;;;6.85;1.85;;;;;;;2.27;41.65;100029.02;1821622;76;20489;-75
2021/03/23 08:12:29;;;;;;;3.00;0.90;;;;;;;2.31;40.68;100032.86;1810685;77;21361;-76
2021/03/23 08:15:20;;;;;;;3.05;0.75;;;;;;;2.26;37.90;100024.78;1812293;76;21632;-76
2021/03/23 08:18:31;;;;;;;3.55;1.17;;;;;;;2.19;37.12;100018.76;1817775;78;21081;-76
2021/03/23 08:21:32;;;;;;;4.30;1.00;;;;;;;2.16;36.91;100026.58;1837777;75;21084;-75
2021/03/23 08:24:22;;;;;;;4.80;1.50;;;;;;;2.18;37.65;100021.11;1834829;77;21624;-76
2021/03/23 08:27:08;;;;;;;6.58;1.62;;;;;;;2.33;36.99;100029.48;1821476;75;21901;-75
2021/03/23 08:30:15;;;;;;;8.10;1.85;;;;;;;2.46;37.44;100024.61;1840045;75;21154;-76
2021/03/23 08:32:54;;;;;;;3.33;1.10;;;;;;;2.52;37.42;100015.84;1827827;77;21137;-75
2021/03/23 08:35:56;;;;;;;5.65;1.30;;;;;;;2.44;37.46;100004.27;1790354;77;21192;-76
2021/03/23 08:38:41;;;;;;;4.80;1.25;;;;;;;2.44;37.85;100019.56;1833360;77;21542;-75
2021/03/23 08:41:26;;;;;;;4.45;1.32;;;;;;;2.62;37.92;100030.64;1830415;77;22273;-76
2021/03/23 08:43:56;;;;;;;3.40;0.90;;;;;;;2.85;37.94;100016.83;1846075;77;21562;-76
2021/03/23 08:46:27;;;;;;;6.15;1.30;;;;;;;3.06;37.53;100001.09;1813499;75;21207;-76
2021/03/23 08:49:06;;;;;;;4.33;1.70;;;;;;;3.12;37.61;100018.64;1832638;75;21203;-75
2021/03/23 08:51:42;;;;;;;4.12;1.50;;;;;;;3.07;37.60;100012.44;1810200;77;21176;-77
2021/03/23 08:54:11;;;;;;;9.95;1.50;;;;;;;2.99;37.85;100018.80;1815252;78;21875;-76
2021/03/23 08:56:53;;;;;;;9.25;1.60;;;;;;;2.82;38.07;100018.58;1833428;77;21187;-75
2021/03/23 08:59:38;;;;;;;5.47;1.42;;;;;;;2.65;38.94;100020.98;1798615;78;21206;-76
2021/03/23 09:02:15;;;;;;;5.95;1.35;;;;;;;2.55;39.27;100022.00;1832717;77;21187;-74
2021/03/23 09:04:57;;;;;;;4.45;1.42;;;;;;;2.45;38.76;100024.32;1821748;77;21182;-76
2021/03/23 09:07:32;;;;;;;3.47;1.17;;;;;;;2.42;39.23;100019.48;1821921;77;22274;-75
2021/03/23 09:10:00;;;;;;;3.17;0.85;;;;;;;2.50;39.02;100013.44;1803508;77;21173;-78
2021/03/23 09:12:44;;;;;;;3.05;1.40;;;;;;;2.61;37.84;100013.73;1770476;79;21188;-76
2021/03/23 09:15:24;;;;;;;4.78;1.30;;;;;;;2.63;37.99;100001.12;1831601;76;21220;-74
2021/03/23 09:17:58;;;;;;;3.12;1.32;;;;;;;2.81;38.48;100000.63;1842360;76;21207;-77
2021/03/23 09:20:38;;;;;;;6.37;1.40;;;;;;;3.05;38.15;99983.10;1812819;78;21433;-74
2021/03/23 09:23:24;;;;;;;4.58;1.45;;;;;;;3.22;38.08;99989.89;1818748;78;21647;-76
2021/03/23 09:25:59;;;;;;;2.75;1.05;;;;;;;3.28;37.72;99999.57;1799906;78;21135;-75
2021/03/23 09:28:40;;;;;;;3.40;1.10;;;;;;;3.21;37.11;100000.69;1836164;76;21628;-76
2021/03/23 09:31:14;;;;;;;3.47;0.90;;;;;;;3.02;36.17;99995.94;1844837;76;21196;-76
2021/03/23 09:33:58;;;;;;;6.30;1.50;;;;;;;2.78;36.22;99995.80;1850017;75;22098;-75
2021/03/23 09:36:37;;;;;;;4.95;1.12;;;;;;;2.65;36.41;99987.22;1844716;75;21214;-76
2021/03/23 09:39:20;;;;;;;6.62;1.30;;;;;;;2.63;36.71;99993.22;1840498;76;21205;-75
2021/03/23 09:42:13;;;;;;;3.10;0.90;;;;;;;2.77;36.93;99973.61;1812735;77;21174;-75
2021/03/23 09:44:45;;;;;;;3.05;0.90;;;;;;;3.08;35.77;99973.14;1808001;78;21244;-75
2021/03/23 09:47:53;;;;;;;3.72;0.78;;;;;;;3.41;35.32;99973.52;1797287;77;22211;-75
2021/03/23 09:50:56;;;;;;;4.42;1.27;;;;;;;3.63;34.85;99963.27;1803273;77;21194;-76
2021/03/23 09:53:39;;;;;;;3.67;1.00;;;;;;;3.79;34.24;99963.14;1804575;77;21147;-75
2021/03/23 09:56:20;;;;;;;3.22;1.00;;;;;;;3.72;33.79;99973.00;1796786;78;21187;-75
2021/03/23 09:59:01;;;;;;;3.30;1.15;;;;;;;3.51;32.74;99994.10;1833776;75;21148;-74
2021/03/23 10:01:30;;;;;;;5.85;1.20;;;;;;;3.32;33.38;99963.49;1811871;77;21183;-75
2021/03/23 10:03:59;;;;;;;2.90;0.98;;;;;;;3.36;34.22;99963.36;1800024;77;21629;-76
2021/03/23 10:06:46;;;;;;;3.15;1.00;;;;;;;3.57;34.65;99962.05;1798153;77;21142;-75
2021/03/23 10:09:28;;;;;;;2.42;0.60;;;;;;;3.78;33.20;99958.86;1795813;77;22293;-75
2021/03/23 10:11:56;;;;;;;2.50;0.68;;;;;;;3.79;32.03;99968.42;1785380;78;22490;-75
2021/03/23 10:14:33;;;;;;;1.25;0.50;;;;;;;3.66;31.41;99983.14;1837509;77;21385;-75
2021/03/23 10:17:27;;;;;;;0.83;0.50;;;;;;;3.54;30.71;99971.22;1806090;78;23370;-75
2021/03/23 10:20:00;;;;;;;3.20;0.65;;;;;;;3.39;30.67;99978.72;1722035;82;21168;-76
2021/03/23 10:22:31;;;;;;;3.55;1.17;;;;;;;3.32;31.45;99973.53;1710735;81;22294;-76
2021/03/23 10:25:00;;;;;;;2.17;0.90;;;;;;;3.29;32.33;99969.53;1695921;81;21607;-75
2021/03/23 10:27:35;;;;;;;2.42;0.78;;;;;;;3.38;32.81;99968.69;1708717;82;21171;-75
2021/03/23 10:30:20;;;;;;;2.83;0.93;;;;;;;3.55;32.58;99956.97;1763271;78;22797;-75
2021/03/23 10:32:52;;;;;;;4.42;1.10;;;;;;;3.43;33.10;99962.23;1724569;82;21736;-75
2021/03/23 10:35:40;;;;;;;3.45;0.75;;;;;;;3.37;33.71;99966.28;1730588;80;21410;-76
2021/03/23 10:38:32;;;;;;;2.70;0.90;;;;;;;3.31;33.38;99957.41;1742850;81;21204;-74
2021/03/23 10:41:24;;;;;;;2.05;0.80;;;;;;;3.24;33.37;99982.58;1739633;80;21200;-74
2021/03/23 10:44:12;;;;;;;5.87;3.17;;;;;;;3.11;32.32;99972.19;1788874;77;21214;-75
2021/03/23 10:46:42;;;;;;;3.27;1.45;;;;;;;3.03;32.43;99977.27;1795718;79;21738;-75
2021/03/23 10:49:29;;;;;;;0.98;0.68;;;;;;;3.11;33.26;99971.39;1801652;79;22293;-75
2021/03/23 10:52:02;;;;;;;1.90;0.90;;;;;;;3.30;32.72;99963.73;1799489;79;21191;-75
2021/03/23 10:54:39;;;;;;;3.45;1.17;;;;;;;3.48;34.44;99964.98;1770422;79;21223;-75
2021/03/23 10:57:33;;;;;;;2.33;1.00;;;;;;;3.58;34.72;99964.45;1805589;79;21163;-74
2021/03/23 11:03:32;;;;;;;2.10;0.90;;;;;;;3.19;36.02;99992.18;1851239;74;22727;-76
2021/03/23 11:06:03;;;;;;;3.05;0.93;;;;;;;2.80;36.76;99988.48;1827296;77;21139;-75
2021/03/23 11:08:33;;;;;;;2.02;0.85;;;;;;;2.68;38.88;100009.20;1794798;77;21109;-76
2021/03/23 11:11:05;;;;;;;2.17;0.85;;;;;;;2.58;41.09;99994.68;1834341;77;21163;-74
2021/03/23 11:13:40;;;;;;;2.17;0.90;;;;;;;2.57;39.99;99994.40;1840486;76;21183;-76
2021/03/23 11:16:19;;;;;;;3.05;1.10;;;;;;;2.71;39.79;99995.58;1818966;77;21197;-76
2021/03/23 11:18:50;;;;;;;3.37;1.00;;;;;;;2.90;40.85;99977.42;1825835;76;21146;-75
2021/03/23 11:21:20;;;;;;;2.95;1.30;;;;;;;3.04;42.25;99985.46;1830038;76;21445;-75
2021/03/23 11:24:00;;;;;;;4.05;1.20;;;;;;;3.12;44.29;99996.73;1820589;77;21186;-76
2021/03/23 11:26:31;;;;;;;3.60;1.30;;;;;;;3.20;45.36;99989.85;1795914;77;21191;-75
2021/03/23 11:29:05;;;;;;;2.90;1.20;;;;;;;3.23;43.89;99987.57;1823897;77;21633;-75
2021/03/23 11:31:34;;;;;;;4.08;1.55;;;;;;;3.24;43.48;99981.77;1839044;76;21143;-76
2021/03/23 11:34:06;;;;;;;5.42;1.30;;;;;;;3.28;42.20;99976.33;1827295;77;21261;-75
2021/03/23 11:36:35;;;;;;;2.75;1.02;;;;;;;3.33;41.30;99979.13;1844146;77;21139;-75
2021/03/23 11:39:08;;;;;;;3.77;1.67;;;;;;;3.32;40.08;99991.20;1834427;76;21535;-74
2021/03/23 11:41:48;;;;;;;26.37;13.78;;;;;;;3.26;41.64;99981.84;1836300;77;21178;-76
2021/03/23 11:44:30;;;;;;;6.53;2.92;;;;;;;3.04;47.84;100029.52;1844518;76;21190;-75
2021/03/23 11:47:29;;;;;;;;;;;;;;;2.58;51.81;100038.19;1844400;77;21674;-75
2021/03/23 11:50:11;;;;;;;7.53;3.15;;;;;;;2.11;53.60;100045.67;1795532;77;20276;-74
2021/03/23 11:52:41;;;;;;;9.30;2.50;;;;;;;1.67;55.60;100030.75;1828308;76;21203;-75
2021/03/23 11:55:12;;;;;;;4.90;1.82;;;;;;;1.44;56.07;100027.32;1838006;77;22244;-74
2021/03/23 11:57:41;;;;;;;4.22;1.52;;;;;;;1.33;56.79;100031.42;1826499;76;21159;-74
2021/03/23 12:00:12;;;;;;;5.58;2.00;;;;;;;1.35;57.48;100018.05;1824058;76;21599;-75
2021/03/23 12:02:41;;;;;;;8.70;3.60;;;;;;;1.45;57.27;100032.91;1839680;77;21151;-75
2021/03/23 12:05:12;;;;;;;9.25;3.75;;;;;;;1.65;56.54;100023.59;1819528;77;21155;-75
2021/03/23 12:08:04;;;;;;;5.58;2.15;;;;;;;1.94;55.46;100017.41;1841652;77;21199;-74
2021/03/23 12:11:06;;;;;;;4.62;1.50;;;;;;;2.15;52.69;100014.95;1843575;76;21158;-83
2021/03/23 12:14:00;;;;;;;4.50;1.67;;;;;;;2.37;50.12;100019.30;1826005;76;21382;-73
2021/03/23 12:16:34;;;;;;;2.70;1.32;;;;;;;2.56;48.88;100012.54;1827348;77;21210;-75
2021/03/23 12:21:46;;;;;;;2.83;1.60;;;;;;;2.83;47.06;100001.75;1828448;77;22733;-74
2021/03/23 12:24:15;;;;;;;4.37;1.20;;;;;;;2.72;46.45;100006.41;1789833;79;21112;-73